Flowerfield, Illinois
Current Conditions -  °F | °C
As of 7:51 PM on Tuesday 21 Oct 2014 (Local Time) from KORD Reporting Station
Broken Clouds Broken Clouds  
Wind Chill:   Ceiling: 3100
Heat Index:   Visibility: 10mi
Dew Point:   Wind: 8mph
Humidity: 68%   Direction: 360°N
Pressure: 30.24"   Gusts: NA
Location:  41.8742°N, 88.0172°W
Report Text: KORD 220051Z 36007KT 10SM BKN031 08/03 A3024 RMK AO2 SLP243 T00830028
Loading
Personal Weather Stations






























Interactive Weather Map
Tropical Storm Tracking
New forecast layout! Learn more

10-Day Weather Forecast

Advertisements
Track Severe Weather on mobile